createdAt,value
2018-04-12T00:01:23.158Z,12.63
2018-04-12T00:03:50.593Z,14.63
2018-04-12T00:06:18.038Z,16.43
2018-04-12T00:08:45.482Z,18.80
2018-04-12T00:11:13.677Z,12.93
2018-04-12T00:13:41.117Z,14.03
2018-04-12T00:16:08.551Z,12.93
2018-04-12T00:18:36.766Z,16.80
2018-04-12T00:21:04.211Z,19.50
2018-04-12T00:23:31.671Z,15.70
2018-04-12T00:25:59.090Z,17.93
2018-04-12T00:28:27.309Z,23.17
2018-04-12T00:30:55.170Z,14.73
2018-04-12T00:33:23.387Z,21.43
2018-04-12T00:35:50.817Z,12.83
2018-04-12T00:38:18.266Z,31.90
2018-04-12T00:40:45.697Z,34.20
2018-04-12T00:43:13.147Z,20.93
2018-04-12T00:45:40.576Z,40.83
2018-04-12T00:48:08.787Z,24.20
2018-04-12T00:50:36.992Z,21.30
2018-04-12T00:53:04.433Z,17.40
2018-04-12T00:55:31.866Z,25.27
2018-04-12T00:57:59.323Z,21.90
2018-04-12T01:00:27.581Z,26.13
2018-04-12T01:02:54.976Z,11.27
2018-04-12T01:05:22.414Z,27.23
2018-04-12T01:07:49.882Z,21.80
2018-04-12T01:10:18.071Z,43.67
2018-04-12T01:12:46.282Z,47.20
2018-04-12T01:15:13.729Z,25.77
2018-04-12T01:17:41.191Z,22.57
2018-04-12T01:20:08.631Z,16.63
2018-04-12T01:22:36.077Z,15.57
2018-04-12T01:25:04.287Z,25.37
2018-04-12T01:27:31.730Z,13.40
2018-04-12T01:29:59.179Z,22.00
2018-04-12T01:32:26.627Z,33.60
2018-04-12T01:34:54.835Z,53.87
2018-04-12T01:37:22.282Z,34.57
2018-04-12T01:39:49.726Z,17.37
2018-04-12T01:42:17.167Z,9.90
2018-04-12T01:44:45.370Z,18.47
2018-04-12T01:47:13.582Z,48.93
2018-04-12T01:49:41.032Z,43.97
2018-04-12T01:52:08.488Z,16.40
2018-04-12T01:54:35.935Z,17.00
2018-04-12T01:57:03.386Z,13.83
2018-04-12T01:59:31.591Z,13.70
2018-04-12T02:01:59.819Z,11.10
2018-04-12T02:04:27.246Z,13.70
2018-04-12T02:06:54.673Z,16.10
2018-04-12T02:09:22.128Z,14.43
2018-04-12T02:11:50.328Z,16.70
2018-04-12T02:14:18.542Z,17.10
2018-04-12T02:16:45.983Z,16.70
2018-04-12T02:19:13.421Z,22.13
2018-04-12T02:21:40.858Z,11.10
2018-04-12T02:24:09.083Z,14.17
2018-04-12T02:26:36.517Z,23.83
2018-04-12T02:29:03.952Z,20.80
2018-04-12T02:31:31.394Z,11.73
2018-04-12T02:33:58.833Z,13.77
2018-04-12T02:36:26.277Z,14.30
2018-04-12T02:38:53.713Z,26.03
2018-04-12T02:41:21.150Z,11.70
2018-04-12T02:43:48.589Z,16.53
2018-04-12T02:46:16.024Z,10.40
2018-04-12T02:48:43.471Z,28.90
2018-04-12T02:51:11.667Z,20.17
2018-04-12T02:53:39.875Z,13.80
2018-04-12T02:56:08.073Z,12.73
2018-04-12T02:58:36.277Z,14.00
2018-04-12T03:01:03.716Z,11.87
2018-04-12T03:03:31.162Z,10.70
2018-04-12T03:05:58.603Z,13.77
2018-04-12T03:08:26.813Z,13.73
2018-04-12T03:10:54.930Z,14.23
2018-04-12T03:13:22.362Z,15.13
2018-04-12T03:15:49.803Z,13.30
2018-04-12T03:18:17.250Z,12.87
2018-04-12T03:20:44.686Z,19.57
2018-04-12T03:23:12.906Z,16.10
2018-04-12T03:25:40.344Z,18.47
2018-04-12T03:28:07.797Z,8.93
2018-04-12T03:30:35.235Z,14.50
2018-04-12T03:33:02.678Z,31.93
2018-04-12T03:35:30.109Z,16.73
2018-04-12T03:37:57.554Z,17.83
2018-04-12T03:40:24.993Z,15.70
2018-04-12T03:42:52.428Z,17.57
2018-04-12T03:45:19.867Z,12.03
2018-04-12T03:47:47.306Z,15.53
2018-04-12T03:50:14.749Z,11.50
2018-04-12T03:52:42.189Z,12.50
2018-04-12T03:55:10.381Z,6.93
2018-04-12T03:57:38.592Z,8.00
2018-04-12T04:00:06.795Z,9.30
2018-04-12T04:02:35.010Z,9.10
2018-04-12T04:05:02.438Z,8.83
2018-04-12T04:07:29.886Z,10.70
2018-04-12T04:09:57.334Z,34.93
2018-04-12T04:12:24.770Z,16.10
2018-04-12T04:18:07.897Z,17.30
2018-04-12T04:20:47.925Z,8.37
2018-04-12T04:23:15.362Z,13.93
2018-04-12T04:25:43.556Z,10.23
2018-04-12T04:28:11.775Z,17.23
2018-04-12T04:30:39.209Z,15.50
2018-04-12T04:33:06.651Z,17.43
2018-04-12T04:35:34.090Z,10.97
2018-04-12T04:38:02.286Z,9.43
2018-04-12T04:40:30.493Z,15.43
2018-04-12T04:42:58.706Z,14.37
2018-04-12T04:45:26.161Z,8.40
2018-04-12T04:47:53.595Z,7.07
2018-04-12T04:50:21.039Z,5.97
2018-04-12T04:52:49.254Z,10.30
2018-04-12T04:55:16.689Z,7.53
2018-04-12T04:57:44.117Z,4.87
2018-04-12T05:00:11.563Z,8.10
2018-04-12T05:02:39.003Z,10.10
2018-04-12T05:05:06.440Z,9.33
2018-04-12T05:07:34.643Z,4.93
2018-04-12T05:10:02.847Z,6.07
2018-04-12T05:12:30.282Z,16.73
2018-04-12T05:14:57.727Z,7.87
2018-04-12T05:17:25.155Z,5.80
2018-04-12T05:19:52.602Z,20.30
2018-04-12T05:22:20.035Z,9.10
2018-04-12T05:24:48.247Z,7.57
2018-04-12T05:27:16.463Z,3.03
2018-04-12T05:29:43.923Z,13.83
2018-04-12T05:32:12.122Z,5.37
2018-04-12T05:34:40.332Z,6.93
2018-04-12T05:37:07.763Z,4.33
2018-04-12T05:39:35.211Z,2.10
2018-04-12T05:42:02.695Z,13.10
2018-04-12T05:44:30.132Z,1.87
2018-04-12T05:46:58.336Z,7.63
2018-04-12T05:49:26.549Z,4.83
2018-04-12T05:51:54.738Z,4.03
2018-04-12T05:54:22.966Z,4.07
2018-04-12T05:56:50.404Z,13.97
2018-04-12T05:59:17.840Z,1.00
2018-04-12T06:01:45.274Z,2.93
2018-04-12T06:04:13.472Z,5.90
2018-04-12T06:06:41.684Z,4.43
2018-04-12T06:09:09.139Z,3.37
2018-04-12T06:11:36.565Z,3.20
2018-04-12T06:14:04.001Z,0.73
2018-04-12T06:16:31.434Z,2.93
2018-04-12T06:18:58.880Z,4.27
2018-04-12T06:21:27.091Z,1.70
2018-04-12T06:23:54.509Z,2.03
2018-04-12T06:26:21.962Z,2.73
2018-04-12T06:28:50.171Z,1.37
2018-04-12T06:31:18.383Z,2.60
2018-04-12T06:33:46.635Z,3.50
2018-04-12T06:36:14.017Z,0.97
2018-04-12T06:38:41.450Z,2.90
2018-04-12T06:41:08.895Z,9.53
2018-04-12T06:43:36.335Z,1.57
2018-04-12T06:46:03.847Z,2.07
2018-04-12T06:48:31.285Z,7.70
2018-04-12T06:50:58.722Z,2.27
2018-04-12T06:53:26.167Z,0.97
2018-04-12T06:55:54.371Z,4.10
2018-04-12T06:58:21.806Z,1.47
2018-04-12T07:00:49.255Z,1.27
2018-04-12T07:03:17.454Z,3.33
2018-04-12T07:05:45.661Z,4.37
2018-04-12T07:08:13.878Z,0.97
2018-04-12T07:10:41.317Z,2.00
2018-04-12T07:13:08.750Z,2.30
2018-04-12T07:15:36.194Z,1.70
2018-04-12T07:18:04.410Z,9.23
2018-04-12T07:20:31.842Z,1.60
2018-04-12T07:22:59.282Z,3.97
2018-04-12T07:25:26.722Z,5.03
2018-04-12T07:27:54.154Z,4.83
2018-04-12T07:30:21.589Z,1.10
2018-04-12T07:32:49.785Z,3.37
2018-04-12T07:35:17.231Z,1.43
2018-04-12T07:37:44.663Z,2.03
2018-04-12T07:40:12.875Z,1.17
2018-04-12T07:42:41.078Z,3.30
2018-04-12T07:45:08.517Z,4.53
2018-04-12T07:47:35.946Z,1.30
2018-04-12T07:50:03.400Z,3.60
2018-04-12T07:52:31.603Z,5.30
2018-04-12T07:54:59.816Z,1.90
2018-04-12T07:57:28.005Z,1.53
2018-04-12T07:59:56.211Z,2.00
2018-04-12T08:02:23.642Z,3.83
2018-04-12T08:04:51.081Z,1.73
2018-04-12T08:07:18.510Z,4.40
2018-04-12T08:09:45.946Z,0.87
2018-04-12T08:12:13.373Z,2.40
2018-04-12T08:14:40.813Z,3.83
2018-04-12T08:17:08.245Z,2.80
2018-04-12T08:19:35.677Z,1.60
2018-04-12T08:22:03.113Z,9.93
2018-04-12T08:24:30.550Z,2.37
2018-04-12T08:26:57.995Z,1.13
2018-04-12T08:29:26.198Z,1.67
2018-04-12T08:31:53.633Z,6.00
2018-04-12T08:34:21.071Z,1.07
2018-04-12T08:36:48.506Z,1.10
2018-04-12T08:39:15.943Z,0.83
2018-04-12T08:41:43.381Z,6.47
2018-04-12T08:44:10.818Z,12.23
2018-04-12T08:46:38.267Z,7.10
2018-04-12T08:49:05.708Z,11.20
2018-04-12T08:51:33.141Z,2.83
2018-04-12T08:54:00.574Z,3.60
2018-04-12T08:56:28.013Z,1.70
2018-04-12T08:58:55.445Z,0.80
2018-04-12T09:01:23.711Z,1.30
2018-04-12T09:03:51.850Z,2.47
2018-04-12T09:06:19.299Z,1.30
2018-04-12T09:08:46.734Z,3.70
2018-04-12T09:11:14.171Z,3.30
2018-04-12T09:13:41.606Z,1.17
2018-04-12T09:16:09.051Z,2.93
2018-04-12T09:18:36.485Z,4.77
2018-04-12T09:21:03.927Z,1.00
2018-04-12T09:23:31.366Z,4.93
2018-04-12T09:25:58.810Z,1.20
2018-04-12T09:28:26.236Z,0.80
2018-04-12T09:30:53.683Z,2.60
2018-04-12T09:33:21.160Z,5.03
2018-04-12T09:35:49.359Z,3.00
2018-04-12T09:38:16.797Z,1.13
2018-04-12T09:40:44.994Z,1.47
2018-04-12T09:43:12.429Z,2.70
2018-04-12T09:45:39.867Z,2.27
2018-04-12T09:48:08.070Z,0.80
2018-04-12T09:50:35.502Z,1.93
2018-04-12T09:53:02.946Z,0.70
2018-04-12T09:55:30.373Z,0.73
2018-04-12T09:57:57.814Z,1.67
2018-04-12T10:00:27.166Z,4.17
2018-04-12T10:02:55.378Z,1.70
2018-04-12T10:05:28.463Z,1.30
2018-04-12T10:08:01.647Z,9.10
2018-04-12T10:10:29.091Z,3.33
2018-04-12T10:12:56.531Z,2.30
2018-04-12T10:15:23.972Z,3.10
2018-04-12T10:17:52.183Z,9.17
2018-04-12T10:20:20.377Z,2.20
2018-04-12T10:22:48.582Z,1.90
2018-04-12T10:25:16.026Z,10.33
2018-04-12T10:27:43.469Z,2.83
2018-04-12T10:30:10.910Z,1.30
2018-04-12T10:32:39.124Z,2.80
2018-04-12T10:35:07.342Z,7.90
2018-04-12T10:37:34.761Z,1.80
2018-04-12T10:42:36.823Z,3.13
2018-04-12T10:45:05.033Z,4.00
2018-04-12T10:47:32.482Z,6.97
2018-04-12T10:49:59.926Z,0.80
2018-04-12T10:52:27.367Z,4.10
2018-04-12T10:54:55.569Z,2.00
2018-04-12T10:57:23.009Z,1.37
2018-04-12T10:59:50.455Z,4.00
2018-04-12T11:02:17.881Z,3.43
2018-04-12T11:04:45.334Z,1.03
2018-04-12T11:07:12.776Z,3.83
2018-04-12T11:09:41.021Z,1.77
2018-04-12T11:12:08.447Z,1.90
2018-04-12T11:14:36.659Z,1.33
2018-04-12T11:17:04.099Z,1.20
2018-04-12T11:19:31.551Z,5.80
2018-04-12T11:21:58.991Z,0.83
2018-04-12T11:24:27.206Z,2.30
2018-04-12T11:26:55.394Z,5.60
2018-04-12T11:29:22.843Z,1.47
2018-04-12T11:31:50.269Z,1.40
2018-04-12T11:34:17.728Z,1.57
2018-04-12T11:36:45.149Z,2.00
2018-04-12T11:39:12.580Z,5.10
2018-04-12T11:41:40.780Z,3.17
2018-04-12T11:44:08.974Z,2.20
2018-04-12T11:46:37.183Z,3.33
2018-04-12T11:49:05.391Z,1.23
2018-04-12T11:51:32.817Z,1.13
2018-04-12T11:54:00.258Z,1.63
2018-04-12T11:56:27.699Z,4.87
2018-04-12T11:58:55.135Z,3.47
2018-04-12T12:01:22.574Z,2.10
2018-04-12T12:03:50.776Z,11.73
2018-04-12T12:06:18.981Z,1.53
2018-04-12T12:08:47.178Z,0.90
2018-04-12T12:11:15.399Z,1.00
2018-04-12T12:13:42.844Z,1.83
2018-04-12T12:16:10.279Z,4.73
2018-04-12T12:18:37.710Z,0.77
2018-04-12T12:21:05.145Z,12.87
2018-04-12T12:23:32.586Z,5.00
2018-04-12T12:26:00.791Z,6.23
2018-04-12T12:28:29.006Z,3.37
2018-04-12T12:30:56.435Z,7.20
2018-04-12T12:33:23.871Z,1.37
2018-04-12T12:35:51.303Z,2.20
2018-04-12T12:38:18.760Z,4.47
2018-04-12T12:40:46.187Z,4.97
2018-04-12T12:43:14.403Z,3.83
2018-04-12T12:45:41.838Z,3.00
2018-04-12T12:48:09.283Z,0.80
2018-04-12T12:50:36.708Z,5.77
2018-04-12T12:53:04.163Z,2.50
2018-04-12T12:55:31.602Z,7.30
2018-04-12T12:57:59.047Z,1.00
2018-04-12T13:00:26.490Z,0.70
2018-04-12T13:02:53.938Z,5.67
2018-04-12T13:05:22.141Z,3.83
2018-04-12T13:07:50.348Z,7.10
2018-04-12T13:10:17.787Z,1.47
2018-04-12T13:12:45.222Z,1.63
2018-04-12T13:15:12.655Z,4.90
2018-04-12T13:17:40.106Z,1.83
2018-04-12T13:20:07.539Z,7.73
2018-04-12T13:22:35.747Z,0.80
2018-04-12T13:25:03.200Z,6.83
2018-04-12T13:27:30.613Z,4.20
2018-04-12T13:29:58.049Z,2.67
2018-04-12T13:32:25.494Z,0.80
2018-04-12T13:34:52.931Z,1.60
2018-04-12T13:37:20.380Z,11.03
2018-04-12T13:39:47.819Z,1.53
2018-04-12T13:42:16.015Z,1.23
2018-04-12T13:44:44.222Z,1.67
2018-04-12T13:47:11.653Z,2.10
2018-04-12T13:49:39.102Z,4.57
2018-04-12T13:52:06.539Z,2.47
2018-04-12T13:54:33.974Z,1.47
2018-04-12T13:57:01.419Z,6.23
2018-04-12T13:59:29.614Z,0.90
2018-04-12T14:01:57.818Z,2.23
2018-04-12T14:04:26.027Z,4.20
2018-04-12T14:06:53.462Z,2.40
2018-04-12T14:09:20.902Z,4.10
2018-04-12T14:11:48.334Z,2.00
2018-04-12T14:14:15.784Z,4.13
2018-04-12T14:16:43.211Z,5.27
2018-04-12T14:19:11.430Z,4.40
2018-04-12T14:21:38.866Z,5.40
2018-04-12T14:24:06.305Z,4.70
2018-04-12T14:26:33.738Z,8.00
2018-04-12T14:29:01.949Z,2.03
2018-04-12T14:31:29.424Z,1.87
2018-04-12T14:33:57.619Z,6.40
2018-04-12T14:36:25.822Z,1.17
2018-04-12T14:38:54.028Z,1.67
2018-04-12T14:41:22.236Z,1.50
2018-04-12T14:43:49.685Z,1.03
2018-04-12T14:46:17.122Z,1.97
2018-04-12T14:48:44.568Z,1.80
2018-04-12T14:51:12.766Z,5.17
2018-04-12T14:53:40.967Z,2.50
2018-04-12T14:56:09.170Z,2.90
2018-04-12T14:58:36.597Z,4.43
2018-04-12T15:01:04.038Z,6.60
2018-04-12T15:03:31.474Z,2.37
2018-04-12T15:05:58.919Z,1.40
2018-04-12T15:08:26.351Z,1.70
2018-04-12T15:10:54.958Z,2.00
2018-04-12T15:13:22.382Z,3.93
2018-04-12T15:15:49.826Z,2.20
2018-04-12T15:18:18.022Z,1.03
2018-04-12T15:20:46.228Z,6.80
2018-04-12T15:23:14.417Z,4.60
2018-04-12T15:25:42.629Z,0.90
2018-04-12T15:28:10.834Z,2.20
2018-04-12T15:30:38.262Z,1.27
2018-04-12T15:33:05.702Z,3.67
2018-04-12T15:35:33.139Z,3.73
2018-04-12T15:38:01.333Z,3.73
2018-04-12T15:40:28.771Z,3.63
2018-04-12T15:42:56.218Z,12.07
2018-04-12T15:45:24.414Z,2.67
2018-04-12T15:47:51.866Z,10.07
2018-04-12T15:50:19.290Z,3.23
2018-04-12T15:52:47.497Z,3.27
2018-04-12T15:55:14.996Z,5.00
2018-04-12T15:57:42.388Z,2.50
2018-04-12T16:00:09.823Z,3.63
2018-04-12T16:02:38.032Z,1.07
2018-04-12T16:05:06.270Z,1.23
2018-04-12T16:07:33.706Z,2.07
2018-04-12T16:10:01.910Z,1.10
2018-04-12T16:12:30.116Z,5.03
2018-04-12T16:14:57.546Z,3.73
2018-04-12T16:17:24.991Z,1.10
2018-04-12T16:19:52.414Z,1.30
2018-04-12T16:22:19.853Z,1.10
2018-04-12T16:24:47.285Z,8.33
2018-04-12T16:27:14.725Z,3.13
2018-04-12T16:29:42.157Z,3.83
2018-04-12T16:32:10.354Z,1.10
2018-04-12T16:34:38.565Z,0.90
2018-04-12T16:37:06.774Z,10.90
2018-04-12T16:39:34.979Z,5.47
2018-04-12T16:42:02.433Z,1.07
2018-04-12T16:44:30.638Z,4.93
2018-04-12T16:46:58.829Z,1.13
2018-04-12T16:49:27.042Z,1.33
2018-04-12T16:51:55.233Z,2.40
2018-04-12T16:54:23.446Z,3.27
2018-04-12T16:56:50.874Z,2.27
2018-04-12T16:59:18.319Z,1.40
2018-04-12T17:01:45.759Z,1.63
2018-04-12T17:04:13.203Z,6.90
2018-04-12T17:06:40.639Z,9.10
2018-04-12T17:09:08.842Z,1.57
2018-04-12T17:11:37.043Z,3.70
2018-04-12T17:14:05.254Z,3.70
2018-04-12T17:16:32.682Z,0.80
2018-04-12T17:19:00.133Z,4.00
2018-04-12T17:21:27.561Z,1.60
2018-04-12T17:23:55.774Z,3.30
2018-04-12T17:26:23.976Z,5.27
2018-04-12T17:28:52.198Z,2.30
2018-04-12T17:31:19.634Z,6.77
2018-04-12T17:33:47.080Z,1.53
2018-04-12T17:36:14.509Z,1.73
2018-04-12T17:38:42.711Z,3.60
2018-04-12T17:41:10.919Z,4.33
2018-04-12T17:43:39.109Z,3.60
2018-04-12T17:46:07.325Z,1.53
2018-04-12T17:48:34.763Z,1.67
2018-04-12T17:51:02.207Z,1.33
2018-04-12T17:53:29.651Z,3.40
2018-04-12T17:55:57.858Z,1.97
2018-04-12T17:58:25.303Z,1.80
2018-04-12T18:00:54.247Z,1.43
2018-04-12T18:03:22.444Z,4.00
2018-04-12T18:05:50.651Z,1.13
2018-04-12T18:08:18.851Z,1.47
2018-04-12T18:10:47.068Z,2.50
2018-04-12T18:13:14.489Z,5.60
2018-04-12T18:15:41.936Z,1.23
2018-04-12T18:18:09.374Z,4.87
2018-04-12T18:20:36.813Z,2.97
2018-04-12T18:23:05.017Z,2.20
2018-04-12T18:25:32.495Z,3.13
2018-04-12T18:27:59.934Z,1.30
2018-04-12T18:30:28.143Z,1.33
2018-04-12T18:32:55.579Z,1.97
2018-04-12T18:35:23.009Z,0.80
2018-04-12T18:37:50.442Z,1.20
2018-04-12T18:40:17.906Z,14.60
2018-04-12T18:42:45.343Z,2.80
2018-04-12T18:45:12.779Z,1.30
2018-04-12T18:47:40.219Z,2.37
2018-04-12T18:50:07.659Z,2.40
2018-04-12T18:52:35.093Z,1.73
2018-04-12T18:55:02.546Z,5.13
2018-04-12T18:57:30.005Z,8.10
2018-04-12T18:59:57.434Z,5.10
2018-04-12T19:02:24.875Z,3.80
2018-04-12T19:04:53.073Z,1.13
2018-04-12T19:07:21.275Z,3.90
2018-04-12T19:09:49.475Z,10.73
2018-04-12T19:12:17.692Z,4.60
2018-04-12T19:14:45.119Z,1.17
2018-04-12T19:17:12.563Z,1.17
2018-04-12T19:19:39.995Z,1.60
2018-04-12T19:22:07.431Z,2.20
2018-04-12T19:24:34.880Z,1.00
2018-04-12T19:27:03.083Z,2.67
2018-04-12T19:29:30.518Z,2.17
2018-04-12T19:31:57.958Z,1.40
2018-04-12T19:34:25.389Z,2.60
2018-04-12T19:36:52.834Z,1.60
2018-04-12T19:39:20.265Z,1.57
2018-04-12T19:41:48.503Z,3.53
2018-04-12T19:44:15.927Z,3.97
2018-04-12T19:46:43.358Z,4.13
2018-04-12T19:49:10.806Z,2.30
2018-04-12T19:51:39.010Z,8.77
2018-04-12T19:54:07.227Z,0.90
2018-04-12T19:56:34.667Z,2.90
2018-04-12T19:59:02.110Z,2.50
2018-04-12T20:01:29.543Z,4.70
2018-04-12T20:03:57.758Z,1.50
2018-04-12T20:06:25.953Z,1.80
2018-04-12T20:08:54.159Z,7.73
2018-04-12T20:11:21.599Z,3.33
2018-04-12T20:13:49.050Z,1.53
2018-04-12T20:16:16.478Z,4.00
2018-04-12T20:18:43.914Z,2.30
2018-04-12T20:21:11.355Z,1.33
2018-04-12T20:23:39.568Z,1.23
2018-04-12T20:26:07.012Z,6.10
2018-04-12T20:28:34.442Z,7.97
2018-04-12T20:31:01.875Z,1.63
2018-04-12T20:33:30.093Z,1.50
2018-04-12T20:35:58.299Z,5.27
2018-04-12T20:38:25.747Z,1.90
2018-04-12T20:40:53.173Z,6.10
2018-04-12T20:43:20.634Z,0.90
2018-04-12T20:45:48.838Z,4.50
2018-04-12T20:48:16.275Z,1.13
2018-04-12T20:50:43.709Z,0.80
2018-04-12T20:53:11.150Z,2.70
2018-04-12T20:55:38.590Z,1.30
2018-04-12T20:58:06.039Z,1.00
2018-04-12T21:00:33.482Z,5.70
2018-04-12T21:03:00.922Z,5.47
2018-04-12T21:05:28.357Z,3.90
2018-04-12T21:07:56.573Z,1.13
2018-04-12T21:10:24.777Z,1.03
2018-04-12T21:12:52.214Z,15.03
2018-04-12T21:15:19.662Z,3.23
2018-04-12T21:17:47.093Z,11.20
2018-04-12T21:20:14.534Z,1.87
2018-04-12T21:22:41.966Z,0.80
2018-04-12T21:25:10.184Z,4.30
2018-04-12T21:27:38.387Z,1.27
2018-04-12T21:30:06.594Z,1.67
2018-04-12T21:32:34.028Z,2.47
2018-04-12T21:35:01.473Z,1.33
2018-04-12T21:37:28.906Z,1.63
2018-04-12T21:39:57.115Z,3.80
2018-04-12T21:42:25.314Z,5.80
2018-04-12T21:44:53.543Z,1.00
2018-04-12T21:47:20.970Z,1.67
2018-04-12T21:49:48.406Z,2.30
2018-04-12T21:52:15.850Z,0.80
2018-04-12T21:54:44.046Z,2.60
2018-04-12T21:57:12.248Z,1.40
2018-04-12T21:59:40.455Z,1.20
2018-04-12T22:02:08.667Z,1.83
2018-04-12T22:04:36.106Z,12.07
2018-04-12T22:07:03.556Z,1.77
2018-04-12T22:09:30.980Z,4.40
2018-04-12T22:11:59.191Z,4.17
2018-04-12T22:14:27.391Z,1.70
2018-04-12T22:16:55.602Z,1.63
2018-04-12T22:19:23.033Z,1.70
2018-04-12T22:21:50.477Z,2.10
2018-04-12T22:24:17.918Z,1.80
2018-04-12T22:26:46.131Z,1.97
2018-04-12T22:29:14.326Z,4.87
2018-04-12T22:31:42.531Z,1.70
2018-04-12T22:34:09.980Z,1.53
2018-04-12T22:36:37.413Z,3.73
2018-04-12T22:39:04.850Z,1.77
2018-04-12T22:41:33.072Z,3.83
2018-04-12T22:44:00.501Z,5.93
2018-04-12T22:46:27.943Z,5.93
2018-04-12T22:48:55.378Z,1.73
2018-04-12T22:51:22.834Z,2.10
2018-04-12T22:53:50.283Z,6.43
2018-04-12T22:56:17.722Z,2.10
2018-04-12T22:58:45.172Z,4.97
2018-04-12T23:01:12.607Z,2.23
2018-04-12T23:03:40.814Z,16.90
2018-04-12T23:06:08.266Z,4.33
2018-04-12T23:08:35.707Z,1.87
2018-04-12T23:11:03.130Z,1.77
2018-04-12T23:13:30.565Z,4.93
2018-04-12T23:15:58.002Z,1.70
2018-04-12T23:18:26.199Z,1.80
2018-04-12T23:20:54.398Z,1.83
2018-04-12T23:23:22.617Z,6.97
2018-04-12T23:25:50.047Z,1.87
2018-04-12T23:28:17.487Z,1.67
2018-04-12T23:30:44.923Z,2.50
2018-04-12T23:33:12.367Z,2.00
2018-04-12T23:35:39.802Z,1.57
2018-04-12T23:38:08.003Z,1.90
2018-04-12T23:40:36.193Z,3.57
2018-04-12T23:43:04.404Z,11.97
2018-04-12T23:45:32.607Z,3.43
2018-04-12T23:48:00.803Z,3.37
2018-04-12T23:50:28.999Z,1.70
2018-04-12T23:52:57.210Z,2.73
2018-04-12T23:55:24.642Z,1.80
2018-04-12T23:57:52.073Z,1.70
